createdAt,value
2019-04-10T00:02:04.947Z,14.58
2019-04-10T00:04:33.604Z,15.37
2019-04-10T00:07:13.838Z,15.75
2019-04-10T00:09:32.855Z,15.70
2019-04-10T00:12:05.289Z,15.37
2019-04-10T00:14:34.527Z,15.80
2019-04-10T00:19:51.969Z,14.58
2019-04-10T00:22:20.483Z,15.07
2019-04-10T00:24:50.578Z,15.40
2019-04-10T00:27:19.223Z,14.77
2019-04-10T00:29:50.763Z,14.23
2019-04-10T00:32:23.762Z,14.50
2019-04-10T00:34:52.369Z,14.30
2019-04-10T00:37:26.819Z,14.23
2019-04-10T00:39:53.027Z,13.77
2019-04-10T00:42:23.111Z,14.35
2019-04-10T00:44:52.206Z,13.60
2019-04-10T00:47:21.188Z,14.67
2019-04-10T00:49:50.367Z,14.67
2019-04-10T00:52:21.894Z,12.73
2019-04-10T00:54:51.432Z,13.53
2019-04-10T00:57:21.233Z,13.70
2019-04-10T00:59:54.701Z,13.30
2019-04-10T01:02:24.804Z,13.87
2019-04-10T01:04:53.396Z,14.30
2019-04-10T01:07:32.633Z,13.23
2019-04-10T01:09:52.092Z,13.10
2019-04-10T01:12:21.534Z,12.47
2019-04-10T01:14:50.066Z,13.47
2019-04-10T01:17:18.527Z,13.67
2019-04-10T01:19:52.269Z,13.43
2019-04-10T01:22:23.931Z,13.27
2019-04-10T01:24:52.644Z,12.77
2019-04-10T01:27:23.586Z,13.00
2019-04-10T01:29:52.228Z,13.33
2019-04-10T01:32:21.266Z,12.90
2019-04-10T01:34:49.761Z,12.43
2019-04-10T01:37:18.750Z,13.23
2019-04-10T01:39:48.559Z,12.20
2019-04-10T01:42:20.680Z,13.30
2019-04-10T01:44:51.141Z,13.40
2019-04-10T01:47:39.328Z,13.10
2019-04-10T01:50:10.471Z,13.03
2019-04-10T01:52:39.448Z,12.13
2019-04-10T01:55:20.307Z,13.60
2019-04-10T01:57:44.140Z,11.95
2019-04-10T02:00:15.231Z,12.53
2019-04-10T02:02:47.736Z,12.97
2019-04-10T02:05:16.572Z,12.07
2019-04-10T02:07:57.804Z,12.85
2019-04-10T02:10:17.069Z,12.33
2019-04-10T02:12:47.172Z,12.70
2019-04-10T02:15:19.694Z,12.97
2019-04-10T02:17:49.171Z,12.53
2019-04-10T02:20:21.044Z,13.53
2019-04-10T02:22:54.089Z,12.97
2019-04-10T02:25:22.727Z,13.13
2019-04-10T02:27:52.668Z,12.70
2019-04-10T02:30:26.157Z,12.83
2019-04-10T02:32:57.898Z,12.80
2019-04-10T02:35:27.424Z,12.43
2019-04-10T02:38:24.537Z,12.93
2019-04-10T02:40:37.425Z,13.17
2019-04-10T02:43:12.025Z,14.50
2019-04-10T02:45:40.346Z,13.57
2019-04-10T02:48:10.085Z,13.60
2019-04-10T02:50:40.732Z,13.27
2019-04-10T02:53:10.921Z,12.87
2019-04-10T02:55:43.626Z,13.17
2019-04-10T02:58:12.232Z,13.13
2019-04-10T03:00:43.978Z,11.93
2019-04-10T03:03:13.902Z,13.33
2019-04-10T03:05:42.783Z,13.27
2019-04-10T03:08:13.074Z,13.37
2019-04-10T03:10:48.641Z,13.03
2019-04-10T03:13:13.169Z,12.63
2019-04-10T03:15:43.910Z,13.23
2019-04-10T03:18:18.791Z,12.47
2019-04-10T03:20:46.825Z,13.73
2019-04-10T03:23:15.580Z,13.33
2019-04-10T03:25:45.839Z,13.27
2019-04-10T03:28:14.593Z,12.73
2019-04-10T03:30:46.660Z,13.72
2019-04-10T03:33:27.565Z,13.13
2019-04-10T03:35:54.855Z,13.57
2019-04-10T03:38:23.757Z,13.87
2019-04-10T03:40:53.250Z,12.53
2019-04-10T03:43:21.941Z,13.90
2019-04-10T03:45:50.401Z,13.45
2019-04-10T03:48:20.069Z,13.40
2019-04-10T03:50:52.157Z,12.70
2019-04-10T03:53:22.150Z,12.77
2019-04-10T03:55:52.113Z,13.13
2019-04-10T03:58:20.613Z,12.87
2019-04-10T04:00:50.625Z,13.20
2019-04-10T04:03:20.823Z,12.67
2019-04-10T04:05:49.507Z,12.80
2019-04-10T04:08:20.219Z,13.10
2019-04-10T04:10:49.001Z,12.50
2019-04-10T04:13:19.567Z,13.67
2019-04-10T04:15:50.266Z,13.93
2019-04-10T04:18:20.102Z,13.75
2019-04-10T04:20:51.229Z,12.25
2019-04-10T04:23:19.859Z,12.30
2019-04-10T04:25:48.526Z,12.50
2019-04-10T04:28:20.173Z,13.53
2019-04-10T04:30:50.722Z,12.67
2019-04-10T04:33:21.615Z,12.23
2019-04-10T04:35:55.148Z,12.80
2019-04-10T04:38:28.762Z,12.57
2019-04-10T04:41:02.421Z,12.93
2019-04-10T04:43:31.102Z,14.13
2019-04-10T04:46:01.802Z,12.30
2019-04-10T04:48:31.784Z,11.00
2019-04-10T04:51:01.256Z,11.33
2019-04-10T04:53:32.205Z,11.27
2019-04-10T04:56:01.728Z,10.80
2019-04-10T04:58:30.547Z,11.08
2019-04-10T05:01:00.713Z,10.37
2019-04-10T05:03:33.566Z,11.03
2019-04-10T05:06:02.104Z,10.60
2019-04-10T05:08:32.364Z,10.77
2019-04-10T05:11:02.624Z,9.90
2019-04-10T05:13:32.744Z,9.35
2019-04-10T05:16:06.115Z,8.98
2019-04-10T05:18:35.163Z,9.75
2019-04-10T05:21:05.054Z,8.83
2019-04-10T05:23:33.738Z,8.80
2019-04-10T05:26:04.103Z,9.58
2019-04-10T05:28:32.815Z,8.27
2019-04-10T05:31:01.340Z,8.10
2019-04-10T05:33:30.921Z,8.03
2019-04-10T05:36:01.402Z,7.90
2019-04-10T05:38:30.008Z,8.33
2019-04-10T05:41:01.378Z,8.70
2019-04-10T05:43:30.644Z,7.80
2019-04-10T05:46:00.765Z,7.77
2019-04-10T05:48:31.673Z,7.47
2019-04-10T05:51:04.771Z,7.67
2019-04-10T05:53:32.715Z,7.93
2019-04-10T05:56:01.544Z,6.70
2019-04-10T05:58:31.420Z,7.03
2019-04-10T06:01:01.737Z,6.60
2019-04-10T06:03:32.367Z,6.43
2019-04-10T06:06:01.253Z,6.40
2019-04-10T06:08:31.201Z,6.73
2019-04-10T06:11:00.510Z,7.60
2019-04-10T06:13:32.609Z,6.13
2019-04-10T06:16:03.898Z,6.97
2019-04-10T06:18:33.341Z,7.20
2019-04-10T06:21:05.089Z,7.47
2019-04-10T06:23:34.156Z,6.57
2019-04-10T06:26:04.043Z,6.37
2019-04-10T06:28:32.898Z,6.83
2019-04-10T06:31:02.439Z,6.70
2019-04-10T06:33:31.927Z,6.65
2019-04-10T06:36:00.825Z,6.70
2019-04-10T06:38:35.093Z,6.83
2019-04-10T06:41:03.618Z,6.73
2019-04-10T06:43:37.191Z,6.67
2019-04-10T06:46:06.935Z,7.20
2019-04-10T06:48:36.246Z,6.67
2019-04-10T06:51:08.173Z,7.00
2019-04-10T06:53:37.423Z,6.43
2019-04-10T06:56:07.429Z,6.73
2019-04-10T06:58:36.109Z,6.17
2019-04-10T07:01:04.807Z,6.50
2019-04-10T07:03:49.663Z,6.10
2019-04-10T07:06:14.233Z,6.67
2019-04-10T07:08:45.427Z,6.53
2019-04-10T07:11:18.053Z,6.53
2019-04-10T07:13:44.950Z,6.50
2019-04-10T07:16:13.686Z,6.17
2019-04-10T07:18:45.892Z,6.80
2019-04-10T07:21:14.679Z,6.87
2019-04-10T07:23:44.979Z,6.53
2019-04-10T07:26:18.519Z,6.53
2019-04-10T07:28:45.727Z,6.77
2019-04-10T07:31:14.139Z,6.08
2019-04-10T07:33:48.892Z,6.90
2019-04-10T07:36:18.726Z,6.60
2019-04-10T07:38:48.922Z,6.70
2019-04-10T07:41:21.461Z,6.60
2019-04-10T07:43:52.830Z,6.43
2019-04-10T07:46:17.857Z,7.53
2019-04-10T07:48:46.329Z,6.92
2019-04-10T07:51:16.954Z,6.07
2019-04-10T07:53:46.916Z,7.67
2019-04-10T07:56:19.193Z,6.07
2019-04-10T07:58:48.219Z,6.87
2019-04-10T08:01:16.811Z,6.60
2019-04-10T08:03:50.929Z,7.60
2019-04-10T08:06:21.640Z,6.80
2019-04-10T08:08:49.914Z,7.23
2019-04-10T08:11:18.368Z,7.57
2019-04-10T08:13:47.140Z,7.22
2019-04-10T08:16:16.936Z,7.03
2019-04-10T08:18:45.746Z,7.27
2019-04-10T08:21:14.267Z,6.90
2019-04-10T08:23:42.953Z,6.87
2019-04-10T08:26:16.751Z,7.17
2019-04-10T08:28:45.443Z,7.53
2019-04-10T08:31:17.061Z,7.87
2019-04-10T08:33:46.170Z,7.57
2019-04-10T08:36:16.281Z,8.33
2019-04-10T08:38:46.632Z,7.67
2019-04-10T08:41:15.188Z,7.75
2019-04-10T08:43:43.893Z,7.13
2019-04-10T08:46:12.902Z,7.15
2019-04-10T08:48:43.324Z,8.28
2019-04-10T08:51:11.953Z,7.23
2019-04-10T08:53:44.746Z,8.03
2019-04-10T08:56:13.256Z,7.77
2019-04-10T08:58:46.019Z,8.40
2019-04-10T09:01:15.411Z,8.90
2019-04-10T09:03:44.107Z,8.57
2019-04-10T09:06:13.356Z,8.10
2019-04-10T09:08:42.118Z,8.73
2019-04-10T09:11:11.946Z,8.67
2019-04-10T09:13:41.692Z,8.30
2019-04-10T09:16:10.553Z,8.00
2019-04-10T09:18:43.500Z,8.60
2019-04-10T09:21:13.217Z,9.03
2019-04-10T09:23:50.468Z,8.70
2019-04-10T09:26:13.436Z,9.20
2019-04-10T09:28:42.440Z,9.20
2019-04-10T09:31:11.946Z,10.17
2019-04-10T09:33:40.498Z,10.03
2019-04-10T09:36:13.129Z,9.33
2019-04-10T09:38:41.739Z,9.97
2019-04-10T09:41:11.940Z,9.40
2019-04-10T09:43:42.219Z,9.60
2019-04-10T09:46:12.699Z,9.97
2019-04-10T09:48:42.064Z,9.30
2019-04-10T09:51:11.673Z,10.37
2019-04-10T09:53:45.426Z,10.30
2019-04-10T09:56:15.067Z,10.33
2019-04-10T09:58:44.878Z,11.97
2019-04-10T10:01:16.160Z,11.97
2019-04-10T10:03:44.977Z,11.33
2019-04-10T10:06:24.349Z,11.50
2019-04-10T10:08:45.597Z,11.13
2019-04-10T10:11:14.261Z,11.30
2019-04-10T10:13:42.737Z,11.80
2019-04-10T10:16:15.210Z,12.58
2019-04-10T10:18:46.145Z,12.17
2019-04-10T10:21:17.283Z,11.47
2019-04-10T10:23:46.480Z,11.27
2019-04-10T10:26:17.816Z,12.33
2019-04-10T10:28:47.315Z,12.30
2019-04-10T10:31:20.264Z,12.87
2019-04-10T10:33:50.034Z,12.33
2019-04-10T10:36:18.696Z,12.43
2019-04-10T10:38:48.219Z,12.70
2019-04-10T10:41:18.211Z,12.77
2019-04-10T10:43:46.880Z,12.20
2019-04-10T10:46:15.564Z,12.33
2019-04-10T10:48:44.500Z,12.17
2019-04-10T10:51:14.873Z,12.27
2019-04-10T10:53:44.083Z,10.73
2019-04-10T10:56:13.979Z,11.33
2019-04-10T10:58:42.465Z,11.50
2019-04-10T11:01:11.598Z,11.75
2019-04-10T11:03:42.589Z,12.03
2019-04-10T11:06:11.140Z,11.78
2019-04-10T11:08:41.771Z,11.03
2019-04-10T11:11:10.338Z,11.37
2019-04-10T11:13:39.221Z,10.97
2019-04-10T11:16:09.094Z,11.17
2019-04-10T11:18:40.926Z,11.57
2019-04-10T11:21:14.094Z,11.30
2019-04-10T11:23:42.696Z,12.47
2019-04-10T11:26:12.842Z,11.03
2019-04-10T11:28:41.924Z,11.03
2019-04-10T11:31:13.609Z,11.80
2019-04-10T11:33:43.374Z,11.13
2019-04-10T11:36:15.142Z,11.73
2019-04-10T11:38:46.489Z,11.07
2019-04-10T11:41:17.654Z,11.20
2019-04-10T11:43:47.993Z,10.80
2019-04-10T11:46:16.930Z,10.90
2019-04-10T11:48:47.058Z,11.30
2019-04-10T11:51:16.488Z,10.87
2019-04-10T11:53:54.418Z,10.77
2019-04-10T11:56:23.508Z,11.00
2019-04-10T11:58:56.325Z,11.03
2019-04-10T12:01:25.522Z,11.23
2019-04-10T12:03:56.810Z,10.60
2019-04-10T12:06:29.819Z,10.43
2019-04-10T12:09:23.229Z,10.50
2019-04-10T12:11:29.596Z,9.93
2019-04-10T12:13:58.944Z,10.90
2019-04-10T12:16:27.738Z,10.68
2019-04-10T12:18:57.331Z,10.77
2019-04-10T12:21:29.567Z,10.43
2019-04-10T12:23:58.936Z,10.40
2019-04-10T12:26:29.073Z,10.43
2019-04-10T12:28:58.203Z,10.03
2019-04-10T12:31:26.759Z,10.17
2019-04-10T12:33:55.540Z,10.97
2019-04-10T12:36:24.662Z,10.40
2019-04-10T12:38:56.156Z,10.37
2019-04-10T12:41:25.603Z,9.70
2019-04-10T12:43:57.235Z,11.00
2019-04-10T12:46:26.736Z,10.83
2019-04-10T12:49:00.120Z,10.27
2019-04-10T12:51:29.859Z,10.07
2019-04-10T12:53:58.471Z,10.95
2019-04-10T12:56:26.940Z,10.37
2019-04-10T12:58:59.347Z,10.28
2019-04-10T13:01:28.903Z,11.17
2019-04-10T13:03:58.500Z,10.50
2019-04-10T13:06:30.164Z,10.00
2019-04-10T13:09:07.302Z,10.93
2019-04-10T13:11:29.857Z,9.90
2019-04-10T13:14:00.065Z,9.63
2019-04-10T13:16:28.838Z,10.50
2019-04-10T13:18:58.872Z,10.40
2019-04-10T13:21:28.449Z,18.57
2019-04-10T13:23:57.283Z,9.77
2019-04-10T13:26:26.022Z,9.77
2019-04-10T13:28:54.571Z,9.57
2019-04-10T13:31:23.563Z,9.43
2019-04-10T13:33:53.542Z,9.97
2019-04-10T13:36:23.884Z,9.55
2019-04-10T13:38:54.981Z,9.83
2019-04-10T13:41:24.142Z,9.40
2019-04-10T13:43:55.501Z,9.97
2019-04-10T13:46:26.871Z,10.47
2019-04-10T13:48:55.592Z,10.03
2019-04-10T13:51:25.804Z,9.60
2019-04-10T13:53:55.186Z,10.05
2019-04-10T13:56:25.341Z,9.57
2019-04-10T13:58:53.887Z,10.63
2019-04-10T14:01:28.284Z,10.47
2019-04-10T14:03:58.734Z,9.70
2019-04-10T14:06:27.495Z,9.23
2019-04-10T14:09:12.008Z,9.73
2019-04-10T14:11:29.184Z,10.00
2019-04-10T14:14:00.160Z,9.80
2019-04-10T14:16:28.928Z,10.37
2019-04-10T14:18:57.493Z,9.30
2019-04-10T14:21:29.092Z,9.43
2019-04-10T14:23:57.990Z,9.40
2019-04-10T14:26:42.098Z,9.43
2019-04-10T14:29:05.221Z,8.63
2019-04-10T14:31:38.064Z,12.00
2019-04-10T14:34:10.334Z,11.27
2019-04-10T14:36:40.571Z,10.85
2019-04-10T14:39:18.429Z,9.70
2019-04-10T14:41:49.763Z,9.17
2019-04-10T14:44:18.492Z,9.17
2019-04-10T14:46:47.559Z,9.43
2019-04-10T14:49:16.772Z,9.70
2019-04-10T14:51:46.336Z,8.93
2019-04-10T14:54:15.538Z,8.97
2019-04-10T14:56:44.234Z,9.30
2019-04-10T14:59:15.658Z,8.80
2019-04-10T15:01:44.739Z,8.40
2019-04-10T15:04:14.982Z,8.87
2019-04-10T15:06:45.863Z,8.00
2019-04-10T15:09:23.989Z,8.78
2019-04-10T15:11:49.018Z,7.97
2019-04-10T15:14:21.626Z,8.57
2019-04-10T15:16:55.477Z,8.00
2019-04-10T15:19:24.622Z,8.10
2019-04-10T15:21:54.017Z,9.50
2019-04-10T15:24:23.793Z,8.60
2019-04-10T15:26:57.218Z,7.67
2019-04-10T15:29:26.025Z,9.13
2019-04-10T15:31:55.776Z,8.17
2019-04-10T15:34:28.254Z,9.20
2019-04-10T15:36:56.928Z,8.90
2019-04-10T15:39:32.120Z,8.68
2019-04-10T15:41:57.441Z,9.45
2019-04-10T15:44:25.941Z,9.03
2019-04-10T15:47:09.483Z,9.20
2019-04-10T15:49:30.942Z,8.53
2019-04-10T15:51:59.654Z,8.47
2019-04-10T15:54:29.961Z,9.50
2019-04-10T15:57:00.754Z,8.38
2019-04-10T15:59:30.257Z,8.00
2019-04-10T16:01:59.429Z,9.43
2019-04-10T16:04:28.198Z,8.27
2019-04-10T16:06:57.899Z,8.50
2019-04-10T16:09:27.374Z,8.50
2019-04-10T16:11:58.475Z,8.00
2019-04-10T16:14:32.095Z,9.77
2019-04-10T16:17:08.876Z,7.93
2019-04-10T16:19:49.452Z,8.45
2019-04-10T16:22:37.148Z,8.13
2019-04-10T16:25:11.625Z,8.48
2019-04-10T16:27:41.346Z,8.30
2019-04-10T16:30:12.958Z,9.30
2019-04-10T16:32:41.857Z,8.00
2019-04-10T16:35:12.170Z,8.00
2019-04-10T16:37:41.801Z,9.03
2019-04-10T16:40:14.853Z,8.68
2019-04-10T16:42:43.691Z,7.80
2019-04-10T16:45:13.585Z,8.90
2019-04-10T16:47:42.718Z,8.63
2019-04-10T16:50:13.282Z,9.00
2019-04-10T16:52:42.006Z,8.97
2019-04-10T16:55:10.935Z,8.63
2019-04-10T16:57:39.479Z,8.33
2019-04-10T17:00:08.957Z,8.97
2019-04-10T17:02:38.084Z,8.63
2019-04-10T17:05:08.201Z,8.57
2019-04-10T17:07:39.715Z,9.30
2019-04-10T17:10:19.353Z,8.27
2019-04-10T17:12:44.255Z,8.43
2019-04-10T17:15:16.132Z,8.40
2019-04-10T17:17:47.035Z,9.23
2019-04-10T17:20:16.138Z,8.33
2019-04-10T17:22:48.578Z,8.03
2019-04-10T17:25:14.974Z,8.75
2019-04-10T17:27:43.803Z,8.30
2019-04-10T17:30:13.907Z,8.43
2019-04-10T17:32:42.747Z,8.27
2019-04-10T17:35:13.698Z,8.20
2019-04-10T17:37:42.295Z,7.50
2019-04-10T17:40:28.011Z,7.60
2019-04-10T17:42:44.335Z,7.53
2019-04-10T17:45:14.206Z,6.60
2019-04-10T17:47:43.287Z,7.17
2019-04-10T17:50:16.116Z,7.43
2019-04-10T17:52:45.164Z,6.90
2019-04-10T17:55:23.167Z,6.37
2019-04-10T17:57:57.667Z,7.37
2019-04-10T18:00:31.360Z,6.70
2019-04-10T18:03:01.112Z,7.55
2019-04-10T18:05:30.766Z,7.20
2019-04-10T18:07:59.479Z,6.47
2019-04-10T18:10:41.143Z,6.37
2019-04-10T18:13:01.047Z,6.60
2019-04-10T18:15:30.319Z,6.67
2019-04-10T18:17:59.938Z,6.37
2019-04-10T18:20:28.562Z,6.42
2019-04-10T18:22:58.729Z,6.67
2019-04-10T18:25:27.689Z,6.53
2019-04-10T18:27:56.870Z,6.03
2019-04-10T18:30:25.535Z,6.80
2019-04-10T18:32:54.182Z,5.40
2019-04-10T18:35:26.754Z,5.47
2019-04-10T18:37:55.488Z,6.30
2019-04-10T18:40:25.307Z,5.40
2019-04-10T18:42:57.582Z,5.97
2019-04-10T18:45:28.021Z,5.93
2019-04-10T18:47:56.672Z,6.43
2019-04-10T18:50:25.206Z,5.97
2019-04-10T18:52:53.971Z,6.30
2019-04-10T18:55:24.552Z,6.63
2019-04-10T18:57:53.156Z,6.17
2019-04-10T19:00:37.080Z,7.17
2019-04-10T19:03:10.245Z,6.10
2019-04-10T19:05:40.426Z,6.17
2019-04-10T19:08:12.783Z,5.80
2019-04-10T19:10:40.857Z,6.83
2019-04-10T19:13:09.696Z,5.80
2019-04-10T19:15:40.125Z,6.13
2019-04-10T19:18:08.555Z,7.30
2019-04-10T19:20:37.088Z,6.67
2019-04-10T19:23:06.677Z,5.93
2019-04-10T19:25:36.927Z,6.50
2019-04-10T19:28:08.637Z,6.30
2019-04-10T19:30:41.453Z,7.10
2019-04-10T19:33:12.142Z,6.13
2019-04-10T19:35:41.377Z,6.17
2019-04-10T19:38:11.582Z,7.00
2019-04-10T19:40:40.403Z,7.10
2019-04-10T19:43:10.480Z,6.60
2019-04-10T19:45:39.793Z,6.80
2019-04-10T19:48:10.844Z,6.80
2019-04-10T19:50:42.238Z,6.30
2019-04-10T19:53:11.205Z,6.87
2019-04-10T19:55:42.119Z,6.53
2019-04-10T19:58:12.377Z,6.80
2019-04-10T20:00:41.469Z,6.80
2019-04-10T20:03:11.186Z,6.80
2019-04-10T20:05:39.919Z,6.90
2019-04-10T20:08:09.278Z,6.80
2019-04-10T20:10:41.470Z,6.83
2019-04-10T20:13:14.440Z,6.53
2019-04-10T20:15:44.929Z,6.65
2019-04-10T20:18:13.402Z,6.40
2019-04-10T20:20:43.697Z,6.10
2019-04-10T20:23:12.733Z,6.37
2019-04-10T20:25:42.885Z,6.27
2019-04-10T20:28:12.264Z,6.57
2019-04-10T20:30:40.881Z,5.60
2019-04-10T20:33:10.320Z,5.83
2019-04-10T20:35:42.488Z,5.83
2019-04-10T20:38:11.520Z,5.23
2019-04-10T20:40:40.212Z,5.57
2019-04-10T20:43:08.951Z,5.53
2019-04-10T20:45:37.983Z,4.90
2019-04-10T20:48:06.663Z,5.40
2019-04-10T20:50:37.110Z,5.33
2019-04-10T20:53:05.530Z,5.27
2019-04-10T20:55:33.988Z,5.97
2019-04-10T20:58:06.536Z,5.15
2019-04-10T21:00:41.086Z,5.00
2019-04-10T21:03:15.539Z,4.70
2019-04-10T21:05:42.468Z,4.97
2019-04-10T21:08:13.907Z,4.77
2019-04-10T21:10:42.907Z,4.65
2019-04-10T21:13:14.948Z,5.53
2019-04-10T21:15:44.377Z,5.13
2019-04-10T21:18:13.205Z,4.97
2019-04-10T21:20:45.170Z,5.03
2019-04-10T21:23:13.781Z,5.47
2019-04-10T21:25:45.595Z,4.80
2019-04-10T21:28:14.200Z,4.70
2019-04-10T21:30:44.923Z,5.73
2019-04-10T21:33:22.645Z,4.80
2019-04-10T21:35:51.921Z,5.57
2019-04-10T21:38:21.651Z,5.47
2019-04-10T21:40:53.223Z,4.63
2019-04-10T21:43:22.789Z,4.50
2019-04-10T21:45:51.863Z,4.67
2019-04-10T21:48:20.457Z,4.70
2019-04-10T21:50:49.668Z,5.17
2019-04-10T21:53:18.520Z,4.70
2019-04-10T21:55:48.394Z,5.53
2019-04-10T21:58:16.846Z,5.23
2019-04-10T22:00:52.725Z,5.10
2019-04-10T22:03:25.306Z,5.30
2019-04-10T22:06:01.561Z,5.40
2019-04-10T22:08:37.537Z,5.03
2019-04-10T22:11:06.414Z,5.47
2019-04-10T22:13:37.922Z,5.10
2019-04-10T22:16:09.269Z,5.37
2019-04-10T22:18:37.941Z,5.27
2019-04-10T22:21:06.746Z,4.93
2019-04-10T22:23:36.291Z,4.90
2019-04-10T22:26:05.940Z,5.10
2019-04-10T22:28:34.435Z,5.50
2019-04-10T22:33:52.625Z,4.97
2019-04-10T22:36:21.142Z,4.90
2019-04-10T22:38:53.809Z,5.23
2019-04-10T22:41:30.628Z,5.33
2019-04-10T22:43:57.697Z,4.93
2019-04-10T22:46:26.233Z,5.57
2019-04-10T22:48:57.845Z,5.00
2019-04-10T22:51:27.044Z,5.13
2019-04-10T22:53:56.308Z,5.72
2019-04-10T22:56:25.187Z,5.60
2019-04-10T22:58:53.708Z,5.60
2019-04-10T23:01:22.822Z,5.37
2019-04-10T23:03:55.520Z,5.70
2019-04-10T23:06:29.186Z,5.30
2019-04-10T23:08:58.104Z,5.73
2019-04-10T23:11:37.270Z,5.92
2019-04-10T23:14:01.190Z,5.33
2019-04-10T23:16:34.151Z,5.53
2019-04-10T23:19:04.225Z,5.90
2019-04-10T23:21:36.585Z,5.50
2019-04-10T23:24:05.556Z,5.90
2019-04-10T23:26:35.511Z,5.70
2019-04-10T23:29:04.249Z,6.90
2019-04-10T23:31:33.949Z,6.60
2019-04-10T23:34:02.675Z,6.30
2019-04-10T23:36:32.599Z,6.40
2019-04-10T23:39:03.832Z,6.23
2019-04-10T23:41:34.005Z,6.10
2019-04-10T23:44:07.354Z,6.33
2019-04-10T23:46:40.097Z,6.63
2019-04-10T23:49:08.979Z,6.40
2019-04-10T23:51:41.934Z,6.50
2019-04-10T23:54:13.082Z,6.37
2019-04-10T23:56:41.935Z,6.97
2019-04-10T23:59:12.715Z,6.42
